Time;durP1;ratioP1;P1;durP2;ratioP2;P2;SDS_P1;SDS_P2;PMS_P1;PMS_P2;Temp;Humidity;BMP_temperature;BMP_pressure;BME280_temperature;BME280_humidity;BME280_pressure;Samples;Min_cycle;Max_cycle;Signal;HPM_P1;HPM_P2
2022/03/05 00:01:34;;;;;;;3.73;3.43;;;25.50;42.80;;;;;;5033988;28;20446;-89
2022/03/05 00:04:01;;;;;;;3.40;3.10;;;25.50;42.80;;;;;;5033535;28;20447;-87
2022/03/05 00:06:28;;;;;;;3.57;3.27;;;25.50;42.80;;;;;;5035446;28;20442;-87
2022/03/05 00:08:56;;;;;;;3.13;2.93;;;25.50;42.80;;;;;;5050022;28;20463;-86
2022/03/05 00:11:22;;;;;;;3.30;3.10;;;25.50;42.80;;;;;;5049528;28;20454;-87
2022/03/05 00:13:49;;;;;;;3.20;3.00;;;25.50;42.80;;;;;;5048070;28;20458;-86
2022/03/05 00:16:16;;;;;;;3.23;3.03;;;25.40;42.70;;;;;;5034432;28;20466;-89
2022/03/05 00:18:43;;;;;;;3.57;3.33;;;25.40;42.70;;;;;;5034362;28;20930;-88
2022/03/05 00:21:09;;;;;;;3.50;3.20;;;25.40;42.70;;;;;;5034180;28;20445;-87
2022/03/05 00:23:36;;;;;;;3.33;3.13;;;25.40;42.70;;;;;;5033838;28;20937;-87
2022/03/05 00:26:04;;;;;;;2.97;2.77;;;25.40;42.70;;;;;;5033648;28;20443;-89
2022/03/05 00:28:31;;;;;;;3.17;2.97;;;25.40;42.70;;;;;;5033565;28;20474;-88
2022/03/05 00:31:00;;;;;;;3.40;3.20;;;25.40;42.70;;;;;;5033832;28;20454;-87
2022/03/05 00:33:27;;;;;;;3.30;3.00;;;25.40;42.70;;;;;;5033777;28;20441;-87
2022/03/05 00:35:53;;;;;;;3.67;3.43;;;25.40;42.70;;;;;;5033860;28;20454;-89
2022/03/05 00:38:21;;;;;;;3.60;3.30;;;25.40;42.70;;;;;;5033376;28;20458;-87
2022/03/05 00:40:47;;;;;;;3.37;3.07;;;25.40;42.80;;;;;;5033758;28;20453;-88
2022/03/05 00:43:15;;;;;;;3.97;3.67;;;25.40;42.70;;;;;;5033359;28;20467;-88
2022/03/05 00:45:42;;;;;;;3.67;3.37;;;25.30;42.70;;;;;;5033554;28;20445;-89
2022/03/05 00:48:09;;;;;;;3.00;2.80;;;25.30;42.80;;;;;;5033436;28;20543;-89
2022/03/05 00:50:36;;;;;;;3.53;3.23;;;25.30;42.80;;;;;;5033736;28;20451;-87
2022/03/05 00:53:03;;;;;;;3.70;3.50;;;25.30;42.80;;;;;;5033211;28;20470;-87
2022/03/05 00:55:30;;;;;;;3.23;2.93;;;25.30;42.80;;;;;;5033587;28;20442;-89
2022/03/05 00:57:56;;;;;;;2.80;2.60;;;25.30;42.80;;;;;;5033302;28;20449;-87
2022/03/05 01:00:24;;;;;;;3.90;3.60;;;25.30;42.80;;;;;;5034095;28;20446;-88
2022/03/05 01:02:52;;;;;;;3.37;3.13;;;25.20;42.70;;;;;;5034972;28;20934;-87
2022/03/05 01:05:18;;;;;;;3.80;3.20;;;25.30;42.70;;;;;;5034975;28;20450;-87
2022/03/05 01:07:45;;;;;;;3.67;3.40;;;25.20;42.70;;;;;;5033450;28;20446;-89
2022/03/05 01:10:12;;;;;;;3.20;3.00;;;25.30;42.80;;;;;;5033256;28;20978;-88
2022/03/05 01:12:38;;;;;;;3.47;3.27;;;25.20;42.70;;;;;;5033082;28;20474;-87
2022/03/05 01:15:08;;;;;;;3.90;3.60;;;25.40;42.80;;;;;;5033806;28;20434;-88
2022/03/05 01:17:36;;;;;;;3.50;3.30;;;25.20;42.70;;;;;;5037304;28;20434;-88
2022/03/05 01:20:05;;;;;;;3.00;2.80;;;25.20;42.70;;;;;;5037335;28;20434;-88
2022/03/05 01:22:32;;;;;;;3.13;2.93;;;25.20;42.70;;;;;;5037230;28;20446;-89
2022/03/05 01:24:59;;;;;;;3.97;3.67;;;25.20;42.70;;;;;;5037214;28;20454;-87
2022/03/05 01:27:25;;;;;;;3.37;3.17;;;25.20;42.70;;;;;;5036848;28;20442;-90
2022/03/05 01:29:52;;;;;;;3.70;3.40;;;25.20;42.70;;;;;;5036749;28;20478;-87
2022/03/05 01:32:19;;;;;;;3.70;3.40;;;25.20;42.80;;;;;;5036912;28;20450;-87
2022/03/05 01:34:47;;;;;;;3.40;3.20;;;25.20;42.80;;;;;;5037021;28;20443;-89
2022/03/05 01:37:14;;;;;;;3.33;3.07;;;25.20;42.70;;;;;;5036641;28;20454;-88
2022/03/05 01:39:41;;;;;;;3.57;3.30;;;25.20;42.70;;;;;;5037089;28;20450;-88
2022/03/05 01:42:08;;;;;;;3.40;3.20;;;25.30;42.80;;;;;;5036636;28;20520;-87
2022/03/05 01:44:35;;;;;;;3.90;3.60;;;25.10;42.70;;;;;;5036770;28;20796;-87
2022/03/05 01:47:04;;;;;;;3.40;3.13;;;25.10;42.70;;;;;;5036865;28;20465;-89
2022/03/05 01:49:31;;;;;;;3.60;3.33;;;25.10;42.70;;;;;;5036532;28;20509;-90
2022/03/05 01:51:59;;;;;;;3.50;3.30;;;25.10;42.70;;;;;;5036501;28;20462;-87
2022/03/05 01:54:27;;;;;;;4.27;3.93;;;25.10;42.70;;;;;;5036470;28;20442;-86
2022/03/05 01:56:55;;;;;;;3.63;3.33;;;25.10;42.70;;;;;;5036511;28;20625;-89
2022/03/05 01:59:22;;;;;;;3.53;3.33;;;25.10;42.70;;;;;;5036454;28;20438;-86
2022/03/05 02:01:50;;;;;;;4.67;4.37;;;25.10;42.60;;;;;;5036007;28;20450;-87
2022/03/05 02:04:17;;;;;;;3.60;3.30;;;25.10;42.60;;;;;;5036335;28;20825;-88
2022/03/05 02:06:43;;;;;;;3.67;3.37;;;25.10;42.70;;;;;;5036352;28;20770;-88
2022/03/05 02:09:11;;;;;;;4.13;3.83;;;25.10;42.70;;;;;;5036175;28;20493;-87
2022/03/05 02:11:38;;;;;;;3.47;3.27;;;25.10;42.60;;;;;;5036422;28;20446;-88
2022/03/05 02:14:06;;;;;;;4.27;3.97;;;25.00;42.60;;;;;;5036587;28;20787;-88
2022/03/05 02:16:33;;;;;;;3.70;3.40;;;25.10;42.60;;;;;;5036326;28;20446;-88
2022/03/05 02:19:00;;;;;;;3.63;3.33;;;25.00;42.60;;;;;;5036290;28;20442;-87
2022/03/05 02:21:28;;;;;;;3.90;3.70;;;25.00;42.60;;;;;;5036326;28;20442;-90
2022/03/05 02:23:55;;;;;;;3.73;3.40;;;25.00;42.60;;;;;;5035930;28;20443;-88
2022/03/05 02:26:22;;;;;;;4.30;4.00;;;25.00;42.60;;;;;;5036170;28;20801;-87
2022/03/05 02:28:49;;;;;;;3.63;3.40;;;25.10;42.70;;;;;;5035930;28;20533;-87
2022/03/05 02:31:18;;;;;;;3.40;3.20;;;25.10;42.70;;;;;;5036575;28;20443;-88
2022/03/05 02:33:44;;;;;;;4.13;3.83;;;25.20;42.80;;;;;;5036341;28;20443;-89
2022/03/05 02:36:12;;;;;;;3.87;3.57;;;25.00;42.70;;;;;;5036119;28;20446;-88
2022/03/05 02:38:40;;;;;;;3.70;3.50;;;25.00;42.60;;;;;;5035769;28;20451;-88
2022/03/05 02:41:07;;;;;;;3.47;3.27;;;25.00;42.60;;;;;;5035426;28;20446;-88
2022/03/05 02:43:33;;;;;;;3.93;3.70;;;25.00;42.60;;;;;;5035423;28;20466;-88
2022/03/05 02:46:00;;;;;;;3.63;3.33;;;25.00;42.60;;;;;;5035544;28;20922;-88
2022/03/05 02:48:27;;;;;;;3.47;3.27;;;25.00;42.60;;;;;;5017731;28;20454;-90
2022/03/05 02:50:54;;;;;;;3.90;3.60;;;25.00;42.50;;;;;;5035316;28;20494;-88
2022/03/05 02:53:21;;;;;;;4.07;3.77;;;25.10;42.50;;;;;;5035471;28;20454;-88
2022/03/05 02:55:49;;;;;;;3.50;3.20;;;25.20;42.60;;;;;;5035317;28;20447;-88
2022/03/05 02:58:16;;;;;;;3.40;3.20;;;25.10;42.50;;;;;;5034972;28;20438;-88
2022/03/05 03:00:43;;;;;;;4.17;3.87;;;25.10;42.50;;;;;;5035113;28;20787;-88
2022/03/05 03:03:10;;;;;;;4.47;4.17;;;25.10;42.50;;;;;;5034990;28;20446;-88
2022/03/05 03:05:37;;;;;;;4.40;4.10;;;25.10;43.00;;;;;;5035234;28;20447;-88
2022/03/05 03:08:04;;;;;;;4.03;3.73;;;25.10;42.40;;;;;;5035251;28;20439;-90
2022/03/05 03:10:31;;;;;;;4.07;3.73;;;25.10;43.00;;;;;;5034935;28;20482;-89
2022/03/05 03:12:59;;;;;;;3.87;3.57;;;25.10;42.40;;;;;;5034971;28;20463;-88
2022/03/05 03:15:26;;;;;;;4.43;4.13;;;25.10;42.30;;;;;;5034714;28;20452;-88
2022/03/05 03:17:54;;;;;;;4.10;3.80;;;25.20;42.40;;;;;;5034660;28;20481;-89
2022/03/05 03:20:23;;;;;;;3.70;3.40;;;25.20;42.30;;;;;;5034787;28;20537;-89
2022/03/05 03:22:50;;;;;;;4.50;4.17;;;25.20;42.30;;;;;;5034886;28;20445;-88
2022/03/05 03:25:17;;;;;;;3.47;3.27;;;25.20;42.20;;;;;;5034513;28;20446;-89
2022/03/05 03:27:43;;;;;;;4.00;3.70;;;25.20;42.20;;;;;;5034505;28;20442;-89
2022/03/05 03:30:14;;;;;;;3.83;3.57;;;25.20;42.30;;;;;;5034693;28;20478;-88
2022/03/05 03:32:41;;;;;;;3.87;3.57;;;25.20;42.20;;;;;;5035103;28;20786;-88
2022/03/05 03:35:09;;;;;;;4.40;4.00;;;25.20;42.10;;;;;;5034686;28;21003;-90
2022/03/05 03:37:37;;;;;;;4.37;3.97;;;25.20;42.10;;;;;;5033699;28;20469;-90
2022/03/05 03:40:06;;;;;;;3.90;3.60;;;25.20;42.10;;;;;;5034329;28;20446;-90
2022/03/05 03:42:34;;;;;;;4.30;4.00;;;25.30;42.10;;;;;;5034456;28;20459;-89
2022/03/05 03:45:00;;;;;;;4.30;4.00;;;25.20;42.00;;;;;;5034503;28;20465;-88
2022/03/05 03:47:28;;;;;;;4.00;3.70;;;25.30;42.10;;;;;;5034710;28;20439;-88
2022/03/05 03:49:55;;;;;;;3.97;3.77;;;25.30;42.10;;;;;;5034246;28;20485;-90
2022/03/05 03:52:22;;;;;;;3.77;3.47;;;25.30;42.00;;;;;;5034054;28;20475;-88
2022/03/05 03:54:51;;;;;;;3.93;3.63;;;25.30;42.00;;;;;;5034036;28;20445;-88
2022/03/05 03:57:18;;;;;;;4.53;4.13;;;25.30;42.10;;;;;;5034007;28;20454;-88
2022/03/05 03:59:47;;;;;;;3.87;3.67;;;25.20;42.00;;;;;;5034198;28;20446;-89
2022/03/05 04:02:15;;;;;;;4.57;4.27;;;25.30;42.00;;;;;;5033952;28;20929;-89
2022/03/05 04:04:43;;;;;;;4.17;3.87;;;25.30;42.00;;;;;;5034088;28;20445;-88
2022/03/05 04:09:54;;;;;;;4.63;4.23;;;25.30;42.00;;;;;;5033826;28;20473;-88
2022/03/05 04:12:21;;;;;;;4.00;3.70;;;25.30;42.00;;;;;;5033734;28;20471;-88
2022/03/05 04:14:48;;;;;;;4.30;4.00;;;25.30;42.00;;;;;;5033848;28;20446;-88
2022/03/05 04:17:15;;;;;;;3.97;3.67;;;25.30;42.00;;;;;;5033978;28;20454;-89
2022/03/05 04:19:44;;;;;;;4.70;4.40;;;25.30;42.00;;;;;;5033949;28;20455;-88
2022/03/05 04:22:10;;;;;;;4.33;4.00;;;25.30;42.00;;;;;;5033967;28;20439;-88
2022/03/05 04:24:37;;;;;;;4.30;4.00;;;25.30;42.00;;;;;;5033600;28;20442;-90
2022/03/05 04:27:04;;;;;;;4.13;3.83;;;25.20;42.00;;;;;;5033521;28;20442;-90
2022/03/05 04:29:31;;;;;;;5.20;4.80;;;25.20;41.90;;;;;;5033520;28;20442;-90
2022/03/05 04:31:58;;;;;;;4.30;4.00;;;25.20;41.90;;;;;;5033459;28;20819;-90
2022/03/05 04:34:25;;;;;;;3.83;3.53;;;25.20;41.90;;;;;;5033753;28;20451;-90
2022/03/05 04:36:53;;;;;;;4.27;3.97;;;25.30;41.90;;;;;;5033679;28;20473;-88
2022/03/05 04:39:20;;;;;;;4.70;4.30;;;25.40;41.80;;;;;;5033528;28;20443;-88
2022/03/05 04:41:46;;;;;;;4.70;4.30;;;25.30;41.80;;;;;;5033491;28;20470;-90
2022/03/05 04:44:13;;;;;;;4.40;4.10;;;25.40;41.80;;;;;;5033577;28;20439;-90
2022/03/05 04:46:40;;;;;;;4.87;4.47;;;25.40;41.70;;;;;;5033578;28;20443;-88
2022/03/05 04:49:07;;;;;;;5.00;4.60;;;25.40;41.70;;;;;;5034375;28;20458;-90
2022/03/05 04:51:34;;;;;;;4.63;4.23;;;25.30;41.70;;;;;;5037110;28;20925;-88
2022/03/05 04:54:02;;;;;;;4.80;4.50;;;25.30;41.70;;;;;;5037649;28;20797;-88
2022/03/05 04:56:28;;;;;;;4.23;3.93;;;25.40;41.60;;;;;;5037298;28;20599;-88
2022/03/05 04:58:55;;;;;;;4.17;3.87;;;25.40;41.60;;;;;;5037522;28;20443;-88
2022/03/05 05:01:22;;;;;;;4.30;4.00;;;25.50;41.60;;;;;;5037208;28;20921;-89
2022/03/05 05:03:49;;;;;;;4.67;4.37;;;25.50;41.60;;;;;;5037456;28;20837;-90
2022/03/05 05:06:15;;;;;;;6.93;4.37;;;25.50;42.20;;;;;;5037434;28;20447;-88
2022/03/05 05:08:42;;;;;;;4.37;4.07;;;25.50;41.50;;;;;;5037067;28;20929;-88
2022/03/05 05:11:10;;;;;;;4.37;4.07;;;25.70;41.60;;;;;;5037150;28;20501;-89
2022/03/05 05:13:38;;;;;;;4.30;4.00;;;25.70;41.60;;;;;;5037250;28;20474;-88
2022/03/05 05:16:06;;;;;;;4.90;4.10;;;25.60;41.50;;;;;;5037175;28;20467;-90
2022/03/05 05:18:34;;;;;;;4.77;4.40;;;25.50;41.40;;;;;;5037274;28;20451;-90
2022/03/05 05:21:01;;;;;;;4.70;4.30;;;25.60;41.50;;;;;;5036905;28;20446;-88
2022/03/05 05:23:27;;;;;;;4.53;4.20;;;25.60;41.50;;;;;;5036725;28;20934;-87
2022/03/05 05:25:54;;;;;;;4.20;3.97;;;25.60;41.50;;;;;;5036913;28;20957;-88
2022/03/05 05:28:23;;;;;;;4.40;4.07;;;25.60;41.50;;;;;;5036868;28;20454;-88
2022/03/05 05:30:49;;;;;;;4.40;4.10;;;25.60;41.40;;;;;;5036900;28;20489;-88
2022/03/05 05:33:16;;;;;;;3.93;3.63;;;25.60;41.30;;;;;;5036610;28;20447;-89
2022/03/05 05:35:43;;;;;;;4.80;4.40;;;25.70;41.40;;;;;;5036961;28;20816;-88
2022/03/05 05:38:09;;;;;;;4.40;4.10;;;25.70;41.30;;;;;;5036524;28;20447;-88
2022/03/05 05:40:36;;;;;;;3.97;3.67;;;25.70;41.30;;;;;;5036743;28;20461;-88
2022/03/05 05:43:03;;;;;;;5.70;5.10;;;25.70;41.30;;;;;;5036407;28;20829;-90
2022/03/05 05:45:31;;;;;;;4.33;4.03;;;25.70;41.20;;;;;;5036589;28;20431;-88
2022/03/05 05:47:59;;;;;;;4.63;4.30;;;25.70;41.20;;;;;;5036388;28;20442;-88
2022/03/05 05:50:26;;;;;;;4.27;3.87;;;25.70;41.20;;;;;;5036659;28;20821;-88
2022/03/05 05:52:53;;;;;;;4.67;4.37;;;25.70;41.20;;;;;;5036347;28;20470;-88
2022/03/05 05:55:19;;;;;;;4.60;4.30;;;25.70;41.10;;;;;;5036555;28;20459;-88
2022/03/05 05:57:46;;;;;;;4.30;4.00;;;25.70;41.20;;;;;;5036194;28;20801;-88
2022/03/05 06:00:14;;;;;;;4.83;4.53;;;25.70;41.20;;;;;;5036354;28;20803;-88
2022/03/05 06:02:42;;;;;;;4.57;4.23;;;25.70;41.20;;;;;;5035693;28;20438;-87
2022/03/05 06:05:09;;;;;;;4.47;4.17;;;25.80;41.20;;;;;;5036073;28;20435;-88
2022/03/05 06:07:36;;;;;;;4.43;4.13;;;25.80;41.10;;;;;;5036288;28;20445;-90
2022/03/05 06:10:03;;;;;;;4.20;3.90;;;25.80;41.20;;;;;;5036037;28;20442;-90
2022/03/05 06:12:30;;;;;;;4.87;4.47;;;25.70;41.10;;;;;;5036154;28;20473;-88
2022/03/05 06:14:57;;;;;;;4.87;4.47;;;25.70;41.00;;;;;;5036220;28;20442;-88
2022/03/05 06:17:24;;;;;;;3.90;3.60;;;25.80;41.00;;;;;;5035959;28;20802;-90
2022/03/05 06:19:52;;;;;;;4.40;4.00;;;25.80;41.10;;;;;;5035736;28;20445;-88
2022/03/05 06:22:19;;;;;;;4.70;4.30;;;25.70;41.10;;;;;;5035594;28;20447;-90
2022/03/05 06:24:46;;;;;;;3.90;3.60;;;25.70;41.10;;;;;;5035732;28;20465;-87
2022/03/05 06:27:12;;;;;;;3.87;3.57;;;25.70;41.10;;;;;;5035637;28;20435;-88
2022/03/05 06:29:39;;;;;;;4.40;4.13;;;25.70;41.10;;;;;;5035638;28;20454;-89
2022/03/05 06:32:06;;;;;;;3.80;3.50;;;25.70;41.10;;;;;;5035707;28;20491;-90
2022/03/05 06:34:33;;;;;;;4.57;4.27;;;25.70;41.10;;;;;;5035515;28;20455;-90
2022/03/05 06:37:01;;;;;;;4.10;3.80;;;25.70;41.00;;;;;;5035823;28;20843;-88
2022/03/05 06:39:28;;;;;;;4.73;4.33;;;25.90;41.10;;;;;;5035698;28;20526;-88
2022/03/05 06:41:55;;;;;;;4.47;4.17;;;25.70;41.00;;;;;;5035470;28;20474;-88
2022/03/05 06:44:21;;;;;;;5.27;4.87;;;25.80;41.10;;;;;;5035620;28;20439;-89
2022/03/05 06:46:48;;;;;;;4.10;3.80;;;25.70;41.00;;;;;;5035439;28;20438;-90
2022/03/05 06:49:15;;;;;;;4.83;4.43;;;25.80;41.00;;;;;;5035482;28;20435;-88
2022/03/05 06:51:42;;;;;;;5.97;5.47;;;25.80;41.00;;;;;;5035161;28;20498;-88
2022/03/05 06:54:10;;;;;;;4.60;4.20;;;25.80;41.00;;;;;;5035254;28;20442;-90
2022/03/05 06:56:37;;;;;;;4.63;4.33;;;25.80;41.00;;;;;;5035587;28;20442;-88
2022/03/05 06:59:05;;;;;;;4.40;4.10;;;25.80;40.90;;;;;;5035278;28;20443;-90
2022/03/05 07:01:32;;;;;;;4.67;4.33;;;25.80;40.90;;;;;;5034908;28;20450;-89
2022/03/05 07:03:59;;;;;;;3.73;3.47;;;25.80;41.00;;;;;;5035179;28;20450;-90
2022/03/05 07:06:25;;;;;;;4.23;3.93;;;25.80;40.90;;;;;;5035181;28;20435;-88
2022/03/05 07:08:52;;;;;;;4.80;4.40;;;25.80;40.80;;;;;;5035423;28;20449;-88
2022/03/05 07:11:20;;;;;;;4.50;4.20;;;25.80;40.90;;;;;;5034937;28;20483;-88
2022/03/05 07:13:47;;;;;;;4.50;4.20;;;25.80;40.90;;;;;;5033886;28;20442;-90
2022/03/05 07:16:13;;;;;;;4.47;4.17;;;25.80;40.90;;;;;;5034779;28;20439;-87
2022/03/05 07:18:40;;;;;;;5.30;4.80;;;25.80;40.80;;;;;;5034980;28;20446;-88
2022/03/05 07:21:07;;;;;;;4.27;3.90;;;25.80;40.80;;;;;;5035111;28;20478;-88
2022/03/05 07:23:34;;;;;;;5.33;4.87;;;25.80;41.00;;;;;;5034787;28;20443;-87
2022/03/05 07:26:01;;;;;;;4.93;4.53;;;25.80;40.70;;;;;;5034623;28;20439;-88
2022/03/05 07:28:33;;;;;;;5.33;4.93;;;25.90;40.80;;;;;;5034421;28;20941;-88
2022/03/05 07:31:01;;;;;;;4.53;4.23;;;26.00;40.80;;;;;;5034644;28;20488;-86
2022/03/05 07:33:31;;;;;;;4.30;4.00;;;26.00;40.70;;;;;;5034528;28;20518;-87
2022/03/05 07:35:58;;;;;;;5.20;4.80;;;26.00;40.70;;;;;;5034847;28;20446;-87
2022/03/05 07:38:25;;;;;;;9.30;4.97;;;25.90;40.70;;;;;;5034534;28;20801;-87
2022/03/05 07:40:51;;;;;;;4.83;4.43;;;25.90;40.70;;;;;;5034524;28;20435;-91
2022/03/05 07:43:18;;;;;;;4.80;4.40;;;26.00;40.80;;;;;;5034370;28;20470;-89
2022/03/05 07:45:46;;;;;;;4.87;4.47;;;25.90;40.80;;;;;;5034455;28;20439;-86
2022/03/05 07:48:14;;;;;;;6.47;5.87;;;25.90;40.90;;;;;;5034277;28;20454;-87
2022/03/05 07:50:42;;;;;;;4.70;4.40;;;25.80;40.80;;;;;;5034277;28;20475;-86
2022/03/05 07:53:09;;;;;;;5.20;4.80;;;25.80;41.20;;;;;;5033832;28;20453;-88
2022/03/05 07:55:36;;;;;;;10.70;4.97;;;25.80;41.00;;;;;;5034356;28;20571;-91
2022/03/05 07:58:02;;;;;;;5.17;4.50;;;25.70;41.20;;;;;;5034235;28;20545;-91
2022/03/05 08:00:29;;;;;;;5.60;5.13;;;25.70;41.20;;;;;;5033923;28;20462;-87
2022/03/05 08:02:58;;;;;;;4.87;4.40;;;25.70;41.20;;;;;;5034139;28;20442;-88
2022/03/05 08:05:25;;;;;;;7.27;5.80;;;25.80;41.10;;;;;;5033870;28;20466;-90
2022/03/05 08:07:53;;;;;;;5.20;4.70;;;25.90;41.20;;;;;;5034005;28;20435;-91
2022/03/05 08:10:20;;;;;;;5.93;5.10;;;26.00;41.30;;;;;;5034098;28;20446;-89
2022/03/05 08:12:47;;;;;;;5.30;4.80;;;26.10;41.10;;;;;;5033753;28;20482;-85
2022/03/05 08:15:14;;;;;;;4.20;3.90;;;26.20;41.10;;;;;;5033629;28;20442;-85
2022/03/05 08:17:49;;;;;;;4.50;4.20;;;26.30;41.10;;;;;;5033881;28;20447;-86
2022/03/05 08:20:18;;;;;;;4.50;4.10;;;26.40;41.00;;;;;;5033983;28;20434;-88
2022/03/05 08:22:45;;;;;;;7.13;5.17;;;26.40;40.90;;;;;;5034147;28;20446;-91
2022/03/05 08:25:15;;;;;;;4.70;4.30;;;26.50;41.00;;;;;;5033504;28;20808;-90
2022/03/05 08:27:41;;;;;;;4.37;3.97;;;26.50;41.00;;;;;;5033495;28;20933;-92
2022/03/05 08:30:09;;;;;;;4.90;4.60;;;26.60;41.10;;;;;;5033586;28;20509;-87
2022/03/05 08:32:36;;;;;;;4.80;4.40;;;26.60;41.20;;;;;;5033042;28;20493;-87
2022/03/05 08:35:03;;;;;;;4.93;4.53;;;26.70;41.20;;;;;;5032902;28;20438;-88
2022/03/05 08:37:31;;;;;;;4.83;4.30;;;26.70;41.20;;;;;;5033231;28;20455;-85
2022/03/05 08:39:58;;;;;;;6.63;5.97;;;26.80;41.20;;;;;;5033423;28;20442;-86
2022/03/05 08:42:25;;;;;;;6.50;5.90;;;26.80;40.10;;;;;;5033326;28;20498;-90
2022/03/05 08:44:52;;;;;;;7.40;5.87;;;26.90;40.10;;;;;;5033601;28;20435;-89
2022/03/05 08:47:19;;;;;;;5.50;4.70;;;27.10;41.00;;;;;;5033441;28;20442;-92
2022/03/05 08:49:45;;;;;;;5.33;4.67;;;27.40;41.00;;;;;;5033592;28;20434;-90
2022/03/05 08:52:12;;;;;;;5.10;4.70;;;28.00;40.80;;;;;;5033082;28;21017;-90
2022/03/05 08:54:40;;;;;;;5.83;5.23;;;28.60;40.20;;;;;;5033497;28;20922;-94
2022/03/05 08:57:11;;;;;;;4.53;4.23;;;29.30;39.70;;;;;;5034221;28;20952;-93
2022/03/05 08:59:38;;;;;;;4.47;4.13;;;29.90;39.20;;;;;;5033585;28;20497;-90
2022/03/05 09:02:05;;;;;;;5.13;4.73;;;30.40;38.90;;;;;;5033408;28;20449;-90
2022/03/05 09:04:32;;;;;;;4.37;4.00;;;30.80;38.50;;;;;;5033376;28;20450;-88
2022/03/05 09:06:58;;;;;;;5.30;5.00;;;31.10;38.10;;;;;;5033422;28;20458;-90
2022/03/05 09:09:25;;;;;;;5.13;4.73;;;31.50;37.90;;;;;;5033378;28;20450;-89
2022/03/05 09:11:54;;;;;;;4.90;4.50;;;31.80;37.60;;;;;;5032587;28;20493;-88
2022/03/05 09:14:21;;;;;;;5.50;5.10;;;32.20;38.10;;;;;;5033221;28;20449;-88
2022/03/05 09:16:49;;;;;;;5.00;4.60;;;32.40;37.90;;;;;;5033389;28;20451;-87
2022/03/05 09:19:16;;;;;;;5.00;4.67;;;32.60;37.10;;;;;;5033404;28;20476;-88
2022/03/05 09:21:43;;;;;;;5.03;4.53;;;32.90;37.00;;;;;;5033429;28;20449;-88
2022/03/05 09:24:09;;;;;;;5.03;4.60;;;33.10;36.80;;;;;;5034096;28;20468;-87
2022/03/05 09:26:37;;;;;;;5.13;4.80;;;33.30;36.60;;;;;;5033652;28;20477;-88
2022/03/05 09:29:05;;;;;;;5.20;4.70;;;33.50;36.50;;;;;;5033410;28;20445;-88
2022/03/05 09:31:32;;;;;;;4.63;4.23;;;33.70;36.40;;;;;;5033558;28;20533;-88
2022/03/05 09:33:59;;;;;;;4.77;4.47;;;33.80;36.20;;;;;;5033446;28;20529;-88
2022/03/05 09:36:26;;;;;;;4.10;3.80;;;33.80;36.20;;;;;;5034463;28;20449;-88
2022/03/05 09:38:53;;;;;;;4.90;4.50;;;33.60;36.20;;;;;;5037500;28;20435;-88
2022/03/05 09:41:20;;;;;;;4.40;4.10;;;33.30;36.50;;;;;;5036918;28;20613;-88
2022/03/05 09:43:51;;;;;;;5.50;5.00;;;32.80;36.80;;;;;;5037033;28;20451;-88
2022/03/05 09:46:23;;;;;;;4.67;4.37;;;32.30;37.10;;;;;;5037242;28;20439;-87
2022/03/05 09:48:53;;;;;;;4.40;4.00;;;31.80;37.60;;;;;;5037013;28;20435;-87
2022/03/05 09:51:22;;;;;;;3.97;3.70;;;31.30;37.90;;;;;;5040811;28;20497;-87
2022/03/05 09:53:53;;;;;;;5.23;4.83;;;30.90;38.30;;;;;;5057182;28;20457;-88
2022/03/05 09:56:23;;;;;;;4.93;4.53;;;30.60;38.60;;;;;;5056897;28;20524;-87
2022/03/05 09:58:52;;;;;;;5.07;4.50;;;30.30;38.90;;;;;;5057339;28;20541;-93
2022/03/05 10:01:24;;;;;;;4.80;4.50;;;30.10;39.20;;;;;;5056813;28;20826;-91
2022/03/05 10:03:52;;;;;;;5.33;4.93;;;30.10;38.30;;;;;;5056622;28;20441;-88
2022/03/05 10:06:23;;;;;;;6.80;6.30;;;29.90;38.00;;;;;;5056638;28;20445;-88
2022/03/05 10:08:51;;;;;;;6.00;5.50;;;29.70;37.90;;;;;;5056571;28;20491;-87
2022/03/05 10:11:21;;;;;;;6.77;6.17;;;29.60;38.40;;;;;;5056480;28;20442;-92
2022/03/05 10:13:48;;;;;;;5.43;4.93;;;29.60;38.70;;;;;;5056450;28;20434;-89
2022/03/05 10:16:29;;;;;;;6.10;5.27;;;29.40;38.80;;;;;;5063743;28;20452;-94
2022/03/05 10:21:54;;;;;;;6.37;4.80;;;29.20;39.10;;;;;;5029652;28;20482;-91
2022/03/05 10:24:30;;;;;;;5.00;4.50;;;29.10;39.40;;;;;;5042765;28;20461;-89
2022/03/05 10:26:59;;;;;;;5.70;5.20;;;28.90;40.10;;;;;;5038106;28;20443;-90
2022/03/05 10:29:27;;;;;;;9.80;6.77;;;28.80;40.30;;;;;;5035721;28;20807;-91
2022/03/05 10:32:04;;;;;;;7.00;5.93;;;28.80;39.20;;;;;;5036525;28;20454;-88
2022/03/05 10:34:55;;;;;;;7.40;5.80;;;28.90;38.00;;;;;;5035596;28;20917;-91
2022/03/05 10:37:23;;;;;;;6.80;6.13;;;28.80;38.20;;;;;;5035800;28;20790;-91
2022/03/05 10:39:51;;;;;;;5.70;5.20;;;28.70;38.30;;;;;;5036419;28;20449;-91
2022/03/05 10:42:18;;;;;;;5.37;4.87;;;28.90;38.70;;;;;;5035826;28;20494;-87
2022/03/05 10:45:03;;;;;;;5.47;4.97;;;28.70;38.50;;;;;;5035649;28;20435;-92
2022/03/05 10:47:39;;;;;;;4.90;4.50;;;28.80;38.50;;;;;;5035516;28;20427;-90
2022/03/05 10:50:07;;;;;;;5.53;5.03;;;28.60;38.50;;;;;;5036153;28;20461;-90
2022/03/05 10:52:45;;;;;;;5.40;4.97;;;28.60;38.60;;;;;;5035616;28;20493;-90
2022/03/05 10:55:16;;;;;;;5.27;4.87;;;28.60;38.60;;;;;;5035470;28;20423;-91
2022/03/05 10:57:57;;;;;;;5.23;4.73;;;28.50;38.50;;;;;;5035632;28;20797;-91
2022/03/05 11:00:24;;;;;;;4.50;4.20;;;28.50;38.40;;;;;;5035754;28;20439;-91
2022/03/05 11:02:53;;;;;;;5.17;4.77;;;28.50;38.50;;;;;;5036878;28;20498;-89
2022/03/05 11:05:20;;;;;;;5.73;5.30;;;28.50;38.60;;;;;;5041242;28;20446;-90
2022/03/05 11:07:48;;;;;;;5.00;4.60;;;28.50;38.50;;;;;;5048303;28;20443;-91
2022/03/05 11:10:17;;;;;;;5.80;4.23;;;28.40;38.50;;;;;;5054833;28;20419;-87
2022/03/05 11:12:51;;;;;;;6.00;5.20;;;28.40;38.50;;;;;;5047232;28;20469;-91
2022/03/05 11:15:19;;;;;;;10.80;3.93;;;28.40;38.60;;;;;;5035597;28;20430;-92
2022/03/05 11:17:46;;;;;;;5.03;4.50;;;28.40;38.70;;;;;;5034957;28;20438;-89
2022/03/05 11:20:15;;;;;;;5.50;5.10;;;28.50;38.70;;;;;;5035356;28;20500;-87
2022/03/05 11:22:46;;;;;;;5.50;5.03;;;28.30;38.80;;;;;;5035213;28;20496;-86
2022/03/05 11:25:15;;;;;;;4.33;3.93;;;28.40;38.80;;;;;;5034871;28;20530;-87
2022/03/05 11:27:52;;;;;;;4.67;4.23;;;28.30;38.70;;;;;;5034799;28;20446;-87
2022/03/05 11:30:19;;;;;;;4.90;4.50;;;28.40;38.70;;;;;;5034896;28;20434;-90
2022/03/05 11:32:46;;;;;;;4.23;3.93;;;28.30;38.70;;;;;;5034952;28;20442;-88
2022/03/05 11:35:23;;;;;;;4.17;3.87;;;28.30;38.70;;;;;;5034615;28;20952;-90
2022/03/05 11:37:50;;;;;;;4.70;4.30;;;28.40;38.70;;;;;;5034808;28;20485;-91
2022/03/05 11:40:37;;;;;;;4.47;4.17;;;28.30;38.60;;;;;;5034797;28;20470;-90
2022/03/05 11:43:16;;;;;;;4.43;4.03;;;28.40;38.70;;;;;;5034702;28;20836;-91
2022/03/05 11:45:48;;;;;;;4.13;3.83;;;28.50;38.90;;;;;;5034564;28;20488;-87
2022/03/05 11:48:30;;;;;;;3.80;3.50;;;28.30;38.70;;;;;;5034150;28;20446;-91
2022/03/05 11:51:00;;;;;;;4.03;3.73;;;28.30;38.70;;;;;;5034130;28;20470;-87
2022/03/05 11:53:28;;;;;;;4.30;4.00;;;28.30;38.70;;;;;;5034664;28;20446;-91
2022/03/05 11:55:57;;;;;;;4.53;4.13;;;28.20;38.80;;;;;;5034502;28;20443;-91
2022/03/05 11:58:35;;;;;;;3.90;3.67;;;28.40;38.80;;;;;;5034141;28;20447;-91
2022/03/05 12:01:33;;;;;;;4.53;4.03;;;28.30;38.80;;;;;;5035040;28;20434;-87
2022/03/05 12:04:05;;;;;;;4.13;3.83;;;28.20;38.60;;;;;;5033532;28;20880;-91
2022/03/05 12:06:43;;;;;;;4.00;3.63;;;28.20;39.00;;;;;;5034645;28;20902;-90
2022/03/05 12:09:35;;;;;;;4.20;3.80;;;28.20;38.90;;;;;;5034407;28;20438;-91
2022/03/05 12:12:04;;;;;;;4.10;3.80;;;28.20;38.80;;;;;;5034815;28;20554;-91
2022/03/05 12:15:22;;;;;;;3.97;3.67;;;28.10;38.80;;;;;;5034337;28;20450;-91
2022/03/05 12:17:51;;;;;;;4.03;3.73;;;28.10;39.10;;;;;;5034635;28;20442;-91
2022/03/05 12:20:20;;;;;;;3.50;3.20;;;28.10;38.90;;;;;;5033946;28;20519;-88
2022/03/05 12:22:57;;;;;;;4.00;3.73;;;28.10;39.00;;;;;;5033934;28;20864;-91
2022/03/05 12:25:25;;;;;;;4.00;3.70;;;28.10;39.00;;;;;;5033814;28;20438;-91
2022/03/05 12:27:53;;;;;;;3.47;3.27;;;28.00;38.90;;;;;;5033970;28;20454;-90
2022/03/05 12:30:23;;;;;;;4.27;3.97;;;28.10;39.00;;;;;;5033898;28;20450;-91
2022/03/05 12:32:51;;;;;;;3.87;3.47;;;28.00;39.00;;;;;;5033873;28;21030;-91
2022/03/05 12:35:18;;;;;;;4.23;3.90;;;28.10;39.00;;;;;;5033642;28;20439;-93
2022/03/05 12:37:46;;;;;;;4.00;3.70;;;28.00;39.10;;;;;;5034963;28;20525;-92
2022/03/05 12:40:15;;;;;;;3.67;3.37;;;28.00;39.20;;;;;;5033962;28;20446;-91
2022/03/05 12:42:44;;;;;;;3.13;2.93;;;28.00;39.20;;;;;;5035479;28;20473;-87
2022/03/05 12:45:17;;;;;;;3.03;2.83;;;28.00;39.30;;;;;;5035767;28;20631;-90
2022/03/05 12:47:44;;;;;;;3.60;3.30;;;28.00;39.30;;;;;;5033498;28;20434;-89
2022/03/05 12:50:27;;;;;;;3.60;3.30;;;28.00;39.30;;;;;;5033100;28;21032;-86
2022/03/05 12:53:02;;;;;;;3.90;3.60;;;28.00;39.30;;;;;;5013863;28;20486;-92
2022/03/05 12:55:32;;;;;;;3.20;3.00;;;27.90;39.30;;;;;;5024585;28;20441;-89
2022/03/05 12:58:07;;;;;;;3.80;3.50;;;27.90;39.30;;;;;;5033451;28;20445;-92
2022/03/05 13:00:35;;;;;;;3.40;3.20;;;27.90;39.30;;;;;;5031254;28;20443;-87